sensor_id;sensor_type;location;lat;lon;timestamp;P1;durP1;ratioP1;P2;durP2;ratioP2
19985;SDS011;10154;52.474;10.768;2023-08-24T00:01:50;6.47;;;3.13;;
19985;SDS011;10154;52.474;10.768;2023-08-24T00:04:16;4.43;;;2.95;;
19985;SDS011;10154;52.474;10.768;2023-08-24T00:06:41;7.47;;;3.22;;
19985;SDS011;10154;52.474;10.768;2023-08-24T00:09:06;3.67;;;2.88;;
19985;SDS011;10154;52.474;10.768;2023-08-24T00:11:32;5.25;;;3.00;;
19985;SDS011;10154;52.474;10.768;2023-08-24T00:13:57;3.72;;;2.63;;
19985;SDS011;10154;52.474;10.768;2023-08-24T00:16:22;5.60;;;2.95;;
19985;SDS011;10154;52.474;10.768;2023-08-24T00:18:48;4.65;;;2.92;;
19985;SDS011;10154;52.474;10.768;2023-08-24T00:21:14;4.70;;;2.53;;
19985;SDS011;10154;52.474;10.768;2023-08-24T00:23:42;3.83;;;2.65;;
19985;SDS011;10154;52.474;10.768;2023-08-24T00:26:08;8.45;;;2.90;;
19985;SDS011;10154;52.474;10.768;2023-08-24T00:28:34;5.13;;;2.83;;
19985;SDS011;10154;52.474;10.768;2023-08-24T00:30:59;3.17;;;2.40;;
19985;SDS011;10154;52.474;10.768;2023-08-24T00:33:24;5.05;;;2.88;;
19985;SDS011;10154;52.474;10.768;2023-08-24T00:35:50;6.05;;;3.00;;
19985;SDS011;10154;52.474;10.768;2023-08-24T00:38:15;4.68;;;2.67;;
19985;SDS011;10154;52.474;10.768;2023-08-24T00:40:44;4.65;;;2.60;;
19985;SDS011;10154;52.474;10.768;2023-08-24T00:43:09;3.90;;;2.70;;
19985;SDS011;10154;52.474;10.768;2023-08-24T00:45:35;4.37;;;2.83;;
19985;SDS011;10154;52.474;10.768;2023-08-24T00:48:01;5.87;;;2.70;;
19985;SDS011;10154;52.474;10.768;2023-08-24T00:50:26;5.03;;;3.07;;
19985;SDS011;10154;52.474;10.768;2023-08-24T00:52:52;6.22;;;2.90;;
19985;SDS011;10154;52.474;10.768;2023-08-24T00:55:18;6.85;;;3.20;;
19985;SDS011;10154;52.474;10.768;2023-08-24T00:57:44;5.50;;;3.00;;
19985;SDS011;10154;52.474;10.768;2023-08-24T01:00:10;10.00;;;3.33;;
19985;SDS011;10154;52.474;10.768;2023-08-24T01:02:36;4.30;;;2.83;;
19985;SDS011;10154;52.474;10.768;2023-08-24T01:05:02;7.00;;;3.25;;
19985;SDS011;10154;52.474;10.768;2023-08-24T01:07:29;5.67;;;3.10;;
19985;SDS011;10154;52.474;10.768;2023-08-24T01:09:55;4.78;;;2.85;;
19985;SDS011;10154;52.474;10.768;2023-08-24T01:12:25;4.53;;;2.30;;
19985;SDS011;10154;52.474;10.768;2023-08-24T01:17:43;7.15;;;2.90;;
19985;SDS011;10154;52.474;10.768;2023-08-24T01:20:09;6.95;;;3.25;;
19985;SDS011;10154;52.474;10.768;2023-08-24T01:22:47;11.32;;;3.05;;
19985;SDS011;10154;52.474;10.768;2023-08-24T01:25:28;6.75;;;3.05;;
19985;SDS011;10154;52.474;10.768;2023-08-24T01:28:00;4.80;;;2.63;;
19985;SDS011;10154;52.474;10.768;2023-08-24T01:30:26;5.47;;;2.85;;
19985;SDS011;10154;52.474;10.768;2023-08-24T01:32:53;4.78;;;2.95;;
19985;SDS011;10154;52.474;10.768;2023-08-24T01:35:19;6.72;;;2.85;;
19985;SDS011;10154;52.474;10.768;2023-08-24T01:37:44;6.55;;;3.30;;
19985;SDS011;10154;52.474;10.768;2023-08-24T01:40:23;6.57;;;3.00;;
19985;SDS011;10154;52.474;10.768;2023-08-24T01:43:03;6.20;;;2.90;;
19985;SDS011;10154;52.474;10.768;2023-08-24T01:45:31;7.18;;;3.10;;
19985;SDS011;10154;52.474;10.768;2023-08-24T01:47:58;4.95;;;3.30;;
19985;SDS011;10154;52.474;10.768;2023-08-24T01:50:24;10.75;;;3.38;;
19985;SDS011;10154;52.474;10.768;2023-08-24T01:52:49;8.23;;;2.88;;
19985;SDS011;10154;52.474;10.768;2023-08-24T01:55:18;5.43;;;2.45;;
19985;SDS011;10154;52.474;10.768;2023-08-24T01:57:44;4.10;;;2.67;;
19985;SDS011;10154;52.474;10.768;2023-08-24T02:00:10;7.55;;;3.20;;
19985;SDS011;10154;52.474;10.768;2023-08-24T02:02:35;6.55;;;2.90;;
19985;SDS011;10154;52.474;10.768;2023-08-24T02:05:01;4.13;;;2.85;;
19985;SDS011;10154;52.474;10.768;2023-08-24T02:07:27;6.05;;;2.88;;
19985;SDS011;10154;52.474;10.768;2023-08-24T02:09:53;6.63;;;2.80;;
19985;SDS011;10154;52.474;10.768;2023-08-24T02:12:18;8.00;;;3.03;;
19985;SDS011;10154;52.474;10.768;2023-08-24T02:14:43;4.30;;;2.70;;
19985;SDS011;10154;52.474;10.768;2023-08-24T02:17:09;4.55;;;2.88;;
19985;SDS011;10154;52.474;10.768;2023-08-24T02:19:34;4.15;;;2.40;;
19985;SDS011;10154;52.474;10.768;2023-08-24T02:21:59;8.40;;;2.80;;
19985;SDS011;10154;52.474;10.768;2023-08-24T02:24:25;8.02;;;2.70;;
19985;SDS011;10154;52.474;10.768;2023-08-24T02:26:50;5.97;;;2.75;;
19985;SDS011;10154;52.474;10.768;2023-08-24T02:29:15;3.88;;;2.30;;
19985;SDS011;10154;52.474;10.768;2023-08-24T02:31:40;6.10;;;2.65;;
19985;SDS011;10154;52.474;10.768;2023-08-24T02:34:06;4.97;;;2.67;;
19985;SDS011;10154;52.474;10.768;2023-08-24T02:36:31;3.20;;;2.10;;
19985;SDS011;10154;52.474;10.768;2023-08-24T02:38:58;4.90;;;2.60;;
19985;SDS011;10154;52.474;10.768;2023-08-24T02:41:24;4.72;;;2.50;;
19985;SDS011;10154;52.474;10.768;2023-08-24T02:43:49;4.20;;;2.87;;
19985;SDS011;10154;52.474;10.768;2023-08-24T02:46:14;4.60;;;2.40;;
19985;SDS011;10154;52.474;10.768;2023-08-24T02:48:40;6.17;;;2.70;;
19985;SDS011;10154;52.474;10.768;2023-08-24T02:51:05;7.07;;;2.72;;
19985;SDS011;10154;52.474;10.768;2023-08-24T02:53:31;4.43;;;2.60;;
19985;SDS011;10154;52.474;10.768;2023-08-24T02:55:57;4.40;;;2.85;;
19985;SDS011;10154;52.474;10.768;2023-08-24T02:58:22;5.47;;;2.65;;
19985;SDS011;10154;52.474;10.768;2023-08-24T03:00:48;5.70;;;2.72;;
19985;SDS011;10154;52.474;10.768;2023-08-24T03:03:13;8.38;;;3.13;;
19985;SDS011;10154;52.474;10.768;2023-08-24T03:05:40;4.53;;;2.67;;
19985;SDS011;10154;52.474;10.768;2023-08-24T03:08:05;4.95;;;2.80;;
19985;SDS011;10154;52.474;10.768;2023-08-24T03:10:34;3.67;;;2.80;;
19985;SDS011;10154;52.474;10.768;2023-08-24T03:13:00;6.18;;;2.75;;
19985;SDS011;10154;52.474;10.768;2023-08-24T03:15:25;4.32;;;2.63;;
19985;SDS011;10154;52.474;10.768;2023-08-24T03:17:51;4.65;;;2.28;;
19985;SDS011;10154;52.474;10.768;2023-08-24T03:20:17;6.30;;;3.20;;
19985;SDS011;10154;52.474;10.768;2023-08-24T03:22:43;4.40;;;2.83;;
19985;SDS011;10154;52.474;10.768;2023-08-24T03:25:08;10.88;;;3.40;;
19985;SDS011;10154;52.474;10.768;2023-08-24T03:27:34;6.90;;;3.35;;
19985;SDS011;10154;52.474;10.768;2023-08-24T03:30:00;5.38;;;3.20;;
19985;SDS011;10154;52.474;10.768;2023-08-24T03:32:25;5.47;;;3.25;;
19985;SDS011;10154;52.474;10.768;2023-08-24T03:34:50;5.50;;;3.00;;
19985;SDS011;10154;52.474;10.768;2023-08-24T03:37:16;6.32;;;3.22;;
19985;SDS011;10154;52.474;10.768;2023-08-24T03:39:41;7.50;;;3.38;;
19985;SDS011;10154;52.474;10.768;2023-08-24T03:42:07;6.18;;;3.47;;
19985;SDS011;10154;52.474;10.768;2023-08-24T03:44:32;4.88;;;2.88;;
19985;SDS011;10154;52.474;10.768;2023-08-24T03:46:58;6.97;;;2.83;;
19985;SDS011;10154;52.474;10.768;2023-08-24T03:49:24;4.23;;;2.63;;
19985;SDS011;10154;52.474;10.768;2023-08-24T03:51:51;5.03;;;2.78;;
19985;SDS011;10154;52.474;10.768;2023-08-24T03:54:16;5.78;;;2.55;;
19985;SDS011;10154;52.474;10.768;2023-08-24T03:56:42;2.90;;;2.47;;
19985;SDS011;10154;52.474;10.768;2023-08-24T03:59:07;4.47;;;2.60;;
19985;SDS011;10154;52.474;10.768;2023-08-24T04:01:33;3.27;;;2.73;;
19985;SDS011;10154;52.474;10.768;2023-08-24T04:03:58;5.22;;;3.22;;
19985;SDS011;10154;52.474;10.768;2023-08-24T04:06:24;4.73;;;3.27;;
19985;SDS011;10154;52.474;10.768;2023-08-24T04:08:49;5.45;;;3.10;;
19985;SDS011;10154;52.474;10.768;2023-08-24T04:11:14;8.82;;;3.58;;
19985;SDS011;10154;52.474;10.768;2023-08-24T04:13:40;8.32;;;3.40;;
19985;SDS011;10154;52.474;10.768;2023-08-24T04:16:05;6.63;;;3.28;;
19985;SDS011;10154;52.474;10.768;2023-08-24T04:18:30;6.60;;;3.60;;
19985;SDS011;10154;52.474;10.768;2023-08-24T04:20:56;9.82;;;3.30;;
19985;SDS011;10154;52.474;10.768;2023-08-24T04:23:24;6.07;;;2.90;;
19985;SDS011;10154;52.474;10.768;2023-08-24T04:25:53;6.00;;;2.90;;
19985;SDS011;10154;52.474;10.768;2023-08-24T04:28:19;6.60;;;3.70;;
19985;SDS011;10154;52.474;10.768;2023-08-24T04:30:54;4.53;;;3.15;;
19985;SDS011;10154;52.474;10.768;2023-08-24T04:33:21;5.95;;;3.38;;
19985;SDS011;10154;52.474;10.768;2023-08-24T04:35:47;7.90;;;3.90;;
19985;SDS011;10154;52.474;10.768;2023-08-24T04:38:13;6.63;;;3.80;;
19985;SDS011;10154;52.474;10.768;2023-08-24T04:40:45;4.70;;;3.67;;
19985;SDS011;10154;52.474;10.768;2023-08-24T04:43:18;8.17;;;4.07;;
19985;SDS011;10154;52.474;10.768;2023-08-24T04:45:51;7.63;;;3.90;;
19985;SDS011;10154;52.474;10.768;2023-08-24T04:48:18;8.35;;;3.88;;
19985;SDS011;10154;52.474;10.768;2023-08-24T04:50:47;5.38;;;3.60;;
19985;SDS011;10154;52.474;10.768;2023-08-24T04:53:14;7.37;;;3.90;;
19985;SDS011;10154;52.474;10.768;2023-08-24T04:55:41;5.60;;;3.50;;
19985;SDS011;10154;52.474;10.768;2023-08-24T04:58:10;7.43;;;3.80;;
19985;SDS011;10154;52.474;10.768;2023-08-24T05:00:36;9.50;;;3.90;;
19985;SDS011;10154;52.474;10.768;2023-08-24T05:03:02;7.37;;;3.93;;
19985;SDS011;10154;52.474;10.768;2023-08-24T05:05:34;7.73;;;4.73;;
19985;SDS011;10154;52.474;10.768;2023-08-24T05:08:00;10.35;;;4.05;;
19985;SDS011;10154;52.474;10.768;2023-08-24T05:10:30;8.90;;;4.13;;
19985;SDS011;10154;52.474;10.768;2023-08-24T05:12:57;9.18;;;4.90;;
19985;SDS011;10154;52.474;10.768;2023-08-24T05:15:22;10.23;;;5.22;;
19985;SDS011;10154;52.474;10.768;2023-08-24T05:17:48;11.38;;;5.32;;
19985;SDS011;10154;52.474;10.768;2023-08-24T05:20:14;9.02;;;4.80;;
19985;SDS011;10154;52.474;10.768;2023-08-24T05:22:39;7.07;;;4.35;;
19985;SDS011;10154;52.474;10.768;2023-08-24T05:25:05;8.00;;;4.57;;
19985;SDS011;10154;52.474;10.768;2023-08-24T05:27:31;7.03;;;4.43;;
19985;SDS011;10154;52.474;10.768;2023-08-24T05:29:56;6.45;;;4.57;;
19985;SDS011;10154;52.474;10.768;2023-08-24T05:32:22;7.20;;;4.60;;
19985;SDS011;10154;52.474;10.768;2023-08-24T05:34:47;7.00;;;4.70;;
19985;SDS011;10154;52.474;10.768;2023-08-24T05:37:13;5.78;;;3.95;;
19985;SDS011;10154;52.474;10.768;2023-08-24T05:39:38;6.30;;;4.22;;
19985;SDS011;10154;52.474;10.768;2023-08-24T05:42:04;8.05;;;3.83;;
19985;SDS011;10154;52.474;10.768;2023-08-24T05:44:30;7.30;;;3.67;;
19985;SDS011;10154;52.474;10.768;2023-08-24T05:46:55;9.25;;;3.35;;
19985;SDS011;10154;52.474;10.768;2023-08-24T05:49:20;4.90;;;3.57;;
19985;SDS011;10154;52.474;10.768;2023-08-24T05:51:46;6.97;;;3.95;;
19985;SDS011;10154;52.474;10.768;2023-08-24T05:54:11;7.07;;;3.72;;
19985;SDS011;10154;52.474;10.768;2023-08-24T05:56:38;10.07;;;3.45;;
19985;SDS011;10154;52.474;10.768;2023-08-24T05:59:03;11.35;;;3.90;;
19985;SDS011;10154;52.474;10.768;2023-08-24T06:01:29;6.97;;;3.80;;
19985;SDS011;10154;52.474;10.768;2023-08-24T06:03:54;8.55;;;4.15;;
19985;SDS011;10154;52.474;10.768;2023-08-24T06:06:19;6.07;;;3.65;;
19985;SDS011;10154;52.474;10.768;2023-08-24T06:08:45;11.82;;;3.65;;
19985;SDS011;10154;52.474;10.768;2023-08-24T06:11:10;8.77;;;3.60;;
19985;SDS011;10154;52.474;10.768;2023-08-24T06:13:35;9.13;;;3.40;;
19985;SDS011;10154;52.474;10.768;2023-08-24T06:16:01;6.38;;;3.67;;
19985;SDS011;10154;52.474;10.768;2023-08-24T06:18:27;9.90;;;3.85;;
19985;SDS011;10154;52.474;10.768;2023-08-24T06:20:53;6.47;;;3.42;;
19985;SDS011;10154;52.474;10.768;2023-08-24T06:23:18;5.53;;;3.22;;
19985;SDS011;10154;52.474;10.768;2023-08-24T06:25:44;7.63;;;3.80;;
19985;SDS011;10154;52.474;10.768;2023-08-24T06:28:10;10.48;;;3.33;;
19985;SDS011;10154;52.474;10.768;2023-08-24T06:30:36;9.82;;;3.60;;
19985;SDS011;10154;52.474;10.768;2023-08-24T06:33:05;14.48;;;3.60;;
19985;SDS011;10154;52.474;10.768;2023-08-24T06:35:32;8.95;;;3.22;;
19985;SDS011;10154;52.474;10.768;2023-08-24T06:38:00;8.70;;;3.22;;
19985;SDS011;10154;52.474;10.768;2023-08-24T06:40:26;8.05;;;3.22;;
19985;SDS011;10154;52.474;10.768;2023-08-24T06:42:52;6.22;;;3.05;;
19985;SDS011;10154;52.474;10.768;2023-08-24T06:45:17;9.05;;;3.50;;
19985;SDS011;10154;52.474;10.768;2023-08-24T06:47:45;10.07;;;3.60;;
19985;SDS011;10154;52.474;10.768;2023-08-24T06:50:10;8.00;;;3.45;;
19985;SDS011;10154;52.474;10.768;2023-08-24T06:52:36;8.23;;;3.35;;
19985;SDS011;10154;52.474;10.768;2023-08-24T06:55:01;3.60;;;2.45;;
19985;SDS011;10154;52.474;10.768;2023-08-24T06:57:28;6.70;;;3.08;;
19985;SDS011;10154;52.474;10.768;2023-08-24T06:59:53;7.13;;;3.47;;
19985;SDS011;10154;52.474;10.768;2023-08-24T07:02:18;7.63;;;3.20;;
19985;SDS011;10154;52.474;10.768;2023-08-24T07:04:44;3.80;;;2.50;;
19985;SDS011;10154;52.474;10.768;2023-08-24T07:07:10;7.75;;;3.33;;
19985;SDS011;10154;52.474;10.768;2023-08-24T07:09:35;4.20;;;3.00;;
19985;SDS011;10154;52.474;10.768;2023-08-24T07:12:03;4.68;;;2.80;;
19985;SDS011;10154;52.474;10.768;2023-08-24T07:14:32;3.28;;;2.40;;
19985;SDS011;10154;52.474;10.768;2023-08-24T07:16:58;6.25;;;2.42;;
19985;SDS011;10154;52.474;10.768;2023-08-24T07:19:23;4.18;;;2.65;;
19985;SDS011;10154;52.474;10.768;2023-08-24T07:21:48;5.00;;;2.47;;
19985;SDS011;10154;52.474;10.768;2023-08-24T07:24:14;7.90;;;3.45;;
19985;SDS011;10154;52.474;10.768;2023-08-24T07:26:40;4.47;;;2.75;;
19985;SDS011;10154;52.474;10.768;2023-08-24T07:29:06;4.13;;;2.67;;
19985;SDS011;10154;52.474;10.768;2023-08-24T07:31:32;6.22;;;2.60;;
19985;SDS011;10154;52.474;10.768;2023-08-24T07:33:57;4.97;;;2.80;;
19985;SDS011;10154;52.474;10.768;2023-08-24T07:36:23;6.22;;;2.88;;
19985;SDS011;10154;52.474;10.768;2023-08-24T07:38:48;4.05;;;2.30;;
19985;SDS011;10154;52.474;10.768;2023-08-24T07:41:14;7.47;;;3.63;;
19985;SDS011;10154;52.474;10.768;2023-08-24T07:43:39;9.48;;;3.55;;
19985;SDS011;10154;52.474;10.768;2023-08-24T07:46:05;5.47;;;3.28;;
19985;SDS011;10154;52.474;10.768;2023-08-24T07:48:30;10.93;;;2.95;;
19985;SDS011;10154;52.474;10.768;2023-08-24T07:50:56;6.10;;;3.50;;
19985;SDS011;10154;52.474;10.768;2023-08-24T07:53:21;11.65;;;4.03;;
19985;SDS011;10154;52.474;10.768;2023-08-24T07:55:46;6.03;;;3.63;;
19985;SDS011;10154;52.474;10.768;2023-08-24T07:58:12;8.45;;;3.33;;
19985;SDS011;10154;52.474;10.768;2023-08-24T08:00:37;5.28;;;3.20;;
19985;SDS011;10154;52.474;10.768;2023-08-24T08:03:03;7.70;;;3.72;;
19985;SDS011;10154;52.474;10.768;2023-08-24T08:05:29;7.03;;;3.65;;
19985;SDS011;10154;52.474;10.768;2023-08-24T08:07:54;15.48;;;3.40;;
19985;SDS011;10154;52.474;10.768;2023-08-24T08:10:21;6.28;;;3.40;;
19985;SDS011;10154;52.474;10.768;2023-08-24T08:12:46;9.02;;;3.45;;
19985;SDS011;10154;52.474;10.768;2023-08-24T08:15:12;8.85;;;3.30;;
19985;SDS011;10154;52.474;10.768;2023-08-24T08:17:37;7.25;;;3.10;;
19985;SDS011;10154;52.474;10.768;2023-08-24T08:20:02;8.68;;;3.20;;
19985;SDS011;10154;52.474;10.768;2023-08-24T08:22:28;7.30;;;3.17;;
19985;SDS011;10154;52.474;10.768;2023-08-24T08:24:54;8.93;;;3.38;;
19985;SDS011;10154;52.474;10.768;2023-08-24T08:27:21;7.90;;;3.00;;
19985;SDS011;10154;52.474;10.768;2023-08-24T08:29:47;8.98;;;2.85;;
19985;SDS011;10154;52.474;10.768;2023-08-24T08:32:13;4.72;;;2.72;;
19985;SDS011;10154;52.474;10.768;2023-08-24T08:34:38;6.68;;;2.65;;
19985;SDS011;10154;52.474;10.768;2023-08-24T08:37:03;4.80;;;2.72;;
19985;SDS011;10154;52.474;10.768;2023-08-24T08:39:29;6.60;;;3.10;;
19985;SDS011;10154;52.474;10.768;2023-08-24T08:41:54;4.57;;;2.72;;
19985;SDS011;10154;52.474;10.768;2023-08-24T08:44:20;11.70;;;3.65;;
19985;SDS011;10154;52.474;10.768;2023-08-24T08:46:47;11.82;;;4.15;;
19985;SDS011;10154;52.474;10.768;2023-08-24T08:49:15;12.18;;;3.88;;
19985;SDS011;10154;52.474;10.768;2023-08-24T08:51:41;10.05;;;4.40;;
19985;SDS011;10154;52.474;10.768;2023-08-24T08:54:06;7.35;;;3.80;;
19985;SDS011;10154;52.474;10.768;2023-08-24T08:56:32;7.78;;;3.70;;
19985;SDS011;10154;52.474;10.768;2023-08-24T08:58:58;11.77;;;3.50;;
19985;SDS011;10154;52.474;10.768;2023-08-24T09:01:25;6.50;;;3.55;;
19985;SDS011;10154;52.474;10.768;2023-08-24T09:03:52;8.68;;;3.53;;
19985;SDS011;10154;52.474;10.768;2023-08-24T09:06:18;6.03;;;3.50;;
19985;SDS011;10154;52.474;10.768;2023-08-24T09:08:43;8.45;;;3.08;;
19985;SDS011;10154;52.474;10.768;2023-08-24T09:11:10;5.18;;;2.80;;
19985;SDS011;10154;52.474;10.768;2023-08-24T09:13:35;6.35;;;2.92;;
19985;SDS011;10154;52.474;10.768;2023-08-24T09:16:05;6.65;;;2.45;;
19985;SDS011;10154;52.474;10.768;2023-08-24T09:18:37;5.47;;;2.65;;
19985;SDS011;10154;52.474;10.768;2023-08-24T09:21:10;3.92;;;2.40;;
19985;SDS011;10154;52.474;10.768;2023-08-24T09:23:37;5.13;;;2.15;;
19985;SDS011;10154;52.474;10.768;2023-08-24T09:26:03;7.22;;;2.45;;
19985;SDS011;10154;52.474;10.768;2023-08-24T09:28:30;8.50;;;2.67;;
19985;SDS011;10154;52.474;10.768;2023-08-24T09:30:55;6.15;;;2.30;;
19985;SDS011;10154;52.474;10.768;2023-08-24T09:33:21;5.88;;;2.40;;
19985;SDS011;10154;52.474;10.768;2023-08-24T09:35:54;4.60;;;2.40;;
19985;SDS011;10154;52.474;10.768;2023-08-24T09:38:23;3.28;;;2.22;;
19985;SDS011;10154;52.474;10.768;2023-08-24T09:40:52;9.77;;;2.30;;
19985;SDS011;10154;52.474;10.768;2023-08-24T09:43:20;7.07;;;2.10;;
19985;SDS011;10154;52.474;10.768;2023-08-24T09:45:47;6.32;;;2.25;;
19985;SDS011;10154;52.474;10.768;2023-08-24T09:48:20;4.32;;;2.13;;
19985;SDS011;10154;52.474;10.768;2023-08-24T09:50:47;4.72;;;2.33;;
19985;SDS011;10154;52.474;10.768;2023-08-24T09:53:17;7.07;;;2.33;;
19985;SDS011;10154;52.474;10.768;2023-08-24T09:55:44;4.05;;;1.90;;
19985;SDS011;10154;52.474;10.768;2023-08-24T09:58:32;3.60;;;2.15;;
19985;SDS011;10154;52.474;10.768;2023-08-24T10:00:57;6.22;;;2.40;;
19985;SDS011;10154;52.474;10.768;2023-08-24T10:03:26;5.78;;;2.10;;
19985;SDS011;10154;52.474;10.768;2023-08-24T10:05:53;4.90;;;2.10;;
19985;SDS011;10154;52.474;10.768;2023-08-24T10:08:29;4.72;;;2.08;;
19985;SDS011;10154;52.474;10.768;2023-08-24T10:11:00;6.47;;;2.35;;
19985;SDS011;10154;52.474;10.768;2023-08-24T10:13:35;5.47;;;1.83;;
19985;SDS011;10154;52.474;10.768;2023-08-24T10:16:05;5.53;;;2.28;;
19985;SDS011;10154;52.474;10.768;2023-08-24T10:18:32;6.32;;;2.17;;
19985;SDS011;10154;52.474;10.768;2023-08-24T10:20:58;2.70;;;1.90;;
19985;SDS011;10154;52.474;10.768;2023-08-24T10:23:24;3.33;;;2.08;;
19985;SDS011;10154;52.474;10.768;2023-08-24T10:25:52;7.70;;;2.20;;
19985;SDS011;10154;52.474;10.768;2023-08-24T10:28:18;5.88;;;2.10;;
19985;SDS011;10154;52.474;10.768;2023-08-24T10:30:45;5.57;;;2.03;;
19985;SDS011;10154;52.474;10.768;2023-08-24T10:33:11;4.32;;;2.10;;
19985;SDS011;10154;52.474;10.768;2023-08-24T10:35:38;4.05;;;2.28;;
19985;SDS011;10154;52.474;10.768;2023-08-24T10:38:05;3.25;;;2.00;;
19985;SDS011;10154;52.474;10.768;2023-08-24T10:40:33;4.05;;;2.50;;
19985;SDS011;10154;52.474;10.768;2023-08-24T10:43:08;8.80;;;3.17;;
19985;SDS011;10154;52.474;10.768;2023-08-24T10:45:53;5.28;;;2.20;;
19985;SDS011;10154;52.474;10.768;2023-08-24T10:48:26;5.07;;;2.90;;
19985;SDS011;10154;52.474;10.768;2023-08-24T10:56:39;5.88;;;2.70;;
19985;SDS011;10154;52.474;10.768;2023-08-24T11:01:40;4.95;;;2.30;;
19985;SDS011;10154;52.474;10.768;2023-08-24T11:04:06;4.97;;;2.97;;
19985;SDS011;10154;52.474;10.768;2023-08-24T11:06:33;6.15;;;3.08;;
19985;SDS011;10154;52.474;10.768;2023-08-24T11:09:08;4.80;;;2.53;;
19985;SDS011;10154;52.474;10.768;2023-08-24T11:11:39;5.22;;;2.72;;
19985;SDS011;10154;52.474;10.768;2023-08-24T11:16:55;4.20;;;2.65;;
19985;SDS011;10154;52.474;10.768;2023-08-24T11:19:22;2.08;;;1.88;;
19985;SDS011;10154;52.474;10.768;2023-08-24T11:21:48;2.85;;;2.28;;
19985;SDS011;10154;52.474;10.768;2023-08-24T11:24:13;4.70;;;2.47;;
19985;SDS011;10154;52.474;10.768;2023-08-24T11:26:40;4.85;;;2.53;;
19985;SDS011;10154;52.474;10.768;2023-08-24T11:29:07;3.85;;;2.50;;
19985;SDS011;10154;52.474;10.768;2023-08-24T11:31:33;2.22;;;1.75;;
19985;SDS011;10154;52.474;10.768;2023-08-24T11:33:59;6.18;;;2.47;;
19985;SDS011;10154;52.474;10.768;2023-08-24T11:36:24;5.38;;;3.00;;
19985;SDS011;10154;52.474;10.768;2023-08-24T11:38:51;6.88;;;2.47;;
19985;SDS011;10154;52.474;10.768;2023-08-24T11:41:18;4.30;;;2.80;;
19985;SDS011;10154;52.474;10.768;2023-08-24T11:43:44;7.00;;;2.80;;
19985;SDS011;10154;52.474;10.768;2023-08-24T11:46:10;3.95;;;2.70;;
19985;SDS011;10154;52.474;10.768;2023-08-24T11:48:38;5.30;;;2.85;;
19985;SDS011;10154;52.474;10.768;2023-08-24T11:51:07;3.80;;;2.70;;
19985;SDS011;10154;52.474;10.768;2023-08-24T11:53:36;4.40;;;2.58;;
19985;SDS011;10154;52.474;10.768;2023-08-24T11:56:02;5.53;;;2.75;;
19985;SDS011;10154;52.474;10.768;2023-08-24T11:58:28;7.00;;;2.50;;
19985;SDS011;10154;52.474;10.768;2023-08-24T12:00:53;5.68;;;2.72;;
19985;SDS011;10154;52.474;10.768;2023-08-24T12:03:18;5.20;;;2.65;;
19985;SDS011;10154;52.474;10.768;2023-08-24T12:05:44;4.60;;;3.00;;
19985;SDS011;10154;52.474;10.768;2023-08-24T12:08:10;6.57;;;2.53;;
19985;SDS011;10154;52.474;10.768;2023-08-24T12:10:40;5.80;;;2.50;;
19985;SDS011;10154;52.474;10.768;2023-08-24T12:13:06;6.47;;;2.75;;
19985;SDS011;10154;52.474;10.768;2023-08-24T12:15:35;4.00;;;2.63;;
19985;SDS011;10154;52.474;10.768;2023-08-24T12:18:11;5.35;;;2.92;;
19985;SDS011;10154;52.474;10.768;2023-08-24T12:20:37;5.07;;;3.00;;
19985;SDS011;10154;52.474;10.768;2023-08-24T12:23:03;3.40;;;2.53;;
19985;SDS011;10154;52.474;10.768;2023-08-24T12:25:29;10.38;;;3.17;;
19985;SDS011;10154;52.474;10.768;2023-08-24T12:28:15;4.25;;;2.70;;
19985;SDS011;10154;52.474;10.768;2023-08-24T12:30:47;4.63;;;2.53;;
19985;SDS011;10154;52.474;10.768;2023-08-24T12:33:27;12.18;;;2.35;;
19985;SDS011;10154;52.474;10.768;2023-08-24T12:35:53;6.20;;;2.80;;
19985;SDS011;10154;52.474;10.768;2023-08-24T12:38:20;4.32;;;2.65;;
19985;SDS011;10154;52.474;10.768;2023-08-24T12:40:49;8.52;;;3.10;;
19985;SDS011;10154;52.474;10.768;2023-08-24T12:43:14;6.15;;;2.78;;
19985;SDS011;10154;52.474;10.768;2023-08-24T12:45:39;5.82;;;2.58;;
19985;SDS011;10154;52.474;10.768;2023-08-24T12:48:06;6.35;;;2.70;;
19985;SDS011;10154;52.474;10.768;2023-08-24T12:50:35;6.65;;;2.40;;
19985;SDS011;10154;52.474;10.768;2023-08-24T12:53:00;4.72;;;2.63;;
19985;SDS011;10154;52.474;10.768;2023-08-24T12:55:26;7.03;;;2.72;;
19985;SDS011;10154;52.474;10.768;2023-08-24T12:57:52;5.50;;;2.70;;
19985;SDS011;10154;52.474;10.768;2023-08-24T13:00:18;7.40;;;2.65;;
19985;SDS011;10154;52.474;10.768;2023-08-24T13:02:44;6.30;;;2.40;;
19985;SDS011;10154;52.474;10.768;2023-08-24T13:05:09;3.25;;;2.30;;
19985;SDS011;10154;52.474;10.768;2023-08-24T13:07:34;4.15;;;2.60;;
19985;SDS011;10154;52.474;10.768;2023-08-24T13:10:01;3.50;;;2.58;;
19985;SDS011;10154;52.474;10.768;2023-08-24T13:12:27;4.18;;;2.30;;
19985;SDS011;10154;52.474;10.768;2023-08-24T13:14:52;4.00;;;2.22;;
19985;SDS011;10154;52.474;10.768;2023-08-24T13:17:18;3.75;;;2.28;;
19985;SDS011;10154;52.474;10.768;2023-08-24T13:19:43;4.22;;;1.75;;
19985;SDS011;10154;52.474;10.768;2023-08-24T13:22:10;3.08;;;2.17;;
19985;SDS011;10154;52.474;10.768;2023-08-24T13:24:35;2.55;;;2.00;;
19985;SDS011;10154;52.474;10.768;2023-08-24T13:27:00;4.13;;;2.40;;
19985;SDS011;10154;52.474;10.768;2023-08-24T13:29:27;3.22;;;2.20;;
19985;SDS011;10154;52.474;10.768;2023-08-24T13:31:53;5.93;;;3.08;;
19985;SDS011;10154;52.474;10.768;2023-08-24T13:34:19;5.75;;;2.85;;
19985;SDS011;10154;52.474;10.768;2023-08-24T13:36:44;3.75;;;2.65;;
19985;SDS011;10154;52.474;10.768;2023-08-24T13:39:16;3.60;;;2.30;;
19985;SDS011;10154;52.474;10.768;2023-08-24T13:41:43;5.07;;;2.45;;
19985;SDS011;10154;52.474;10.768;2023-08-24T13:44:08;4.60;;;2.60;;
19985;SDS011;10154;52.474;10.768;2023-08-24T13:46:33;17.10;;;3.20;;
19985;SDS011;10154;52.474;10.768;2023-08-24T13:48:59;4.05;;;2.97;;
19985;SDS011;10154;52.474;10.768;2023-08-24T13:51:24;11.18;;;2.83;;
19985;SDS011;10154;52.474;10.768;2023-08-24T13:53:49;5.03;;;3.05;;
19985;SDS011;10154;52.474;10.768;2023-08-24T13:56:15;8.40;;;3.05;;
19985;SDS011;10154;52.474;10.768;2023-08-24T13:58:40;6.68;;;2.72;;
19985;SDS011;10154;52.474;10.768;2023-08-24T14:01:05;5.68;;;2.70;;
19985;SDS011;10154;52.474;10.768;2023-08-24T14:03:34;4.53;;;2.70;;
19985;SDS011;10154;52.474;10.768;2023-08-24T14:05:59;8.52;;;2.60;;
19985;SDS011;10154;52.474;10.768;2023-08-24T14:08:25;4.45;;;2.30;;
19985;SDS011;10154;52.474;10.768;2023-08-24T14:10:51;2.15;;;1.90;;
19985;SDS011;10154;52.474;10.768;2023-08-24T14:13:17;6.32;;;2.25;;
19985;SDS011;10154;52.474;10.768;2023-08-24T14:15:42;8.55;;;2.30;;
19985;SDS011;10154;52.474;10.768;2023-08-24T14:18:09;5.68;;;2.00;;
19985;SDS011;10154;52.474;10.768;2023-08-24T14:20:36;7.78;;;2.30;;
19985;SDS011;10154;52.474;10.768;2023-08-24T14:23:01;5.13;;;1.98;;
19985;SDS011;10154;52.474;10.768;2023-08-24T14:25:28;4.13;;;2.00;;
19985;SDS011;10154;52.474;10.768;2023-08-24T14:27:53;5.07;;;1.90;;
19985;SDS011;10154;52.474;10.768;2023-08-24T14:30:19;5.00;;;1.70;;
19985;SDS011;10154;52.474;10.768;2023-08-24T14:32:45;2.13;;;1.60;;
19985;SDS011;10154;52.474;10.768;2023-08-24T14:35:10;4.53;;;2.10;;
19985;SDS011;10154;52.474;10.768;2023-08-24T14:37:35;6.63;;;2.20;;
19985;SDS011;10154;52.474;10.768;2023-08-24T14:40:03;5.55;;;2.05;;
19985;SDS011;10154;52.474;10.768;2023-08-24T14:42:29;4.20;;;1.77;;
19985;SDS011;10154;52.474;10.768;2023-08-24T14:44:54;3.67;;;1.85;;